createdAt,value
2022-10-24T00:01:16.080Z,101252.00
2022-10-24T00:03:43.349Z,101257.28
2022-10-24T00:06:11.549Z,101258.19
2022-10-24T00:08:39.021Z,101253.75
2022-10-24T00:11:30.656Z,101255.53
2022-10-24T00:13:58.005Z,101259.03
2022-10-24T00:16:24.582Z,101258.19
2022-10-24T00:18:51.229Z,101266.06
2022-10-24T00:21:17.930Z,101271.34
2022-10-24T00:23:45.374Z,101271.38
2022-10-24T00:26:12.915Z,101269.59
2022-10-24T00:28:40.709Z,101255.50
2022-10-24T00:31:13.779Z,101262.50
2022-10-24T00:33:41.005Z,101261.69
2022-10-24T00:36:12.853Z,101266.09
2022-10-24T00:38:39.545Z,101263.47
2022-10-24T00:41:06.192Z,101266.09
2022-10-24T00:43:32.848Z,101268.72
2022-10-24T00:46:03.553Z,101263.47
2022-10-24T00:48:45.295Z,101273.09
2022-10-24T00:51:26.564Z,101280.16
2022-10-24T00:56:34.517Z,101270.56
2022-10-24T00:59:04.170Z,101272.41
2022-10-24T01:01:31.876Z,101276.91
2022-10-24T01:03:58.518Z,101269.84
2022-10-24T01:06:46.826Z,101272.50
2022-10-24T01:09:26.775Z,101279.50
2022-10-24T01:12:04.042Z,101268.00
2022-10-24T01:14:33.425Z,101264.44
2022-10-24T01:17:18.750Z,101257.41
2022-10-24T01:20:03.588Z,101259.09
2022-10-24T01:23:03.886Z,101255.59
2022-10-24T01:25:52.233Z,101249.44
2022-10-24T01:28:23.382Z,101252.97
2022-10-24T01:30:56.735Z,101244.19
2022-10-24T01:33:38.030Z,101245.06
2022-10-24T01:36:20.257Z,101239.78
2022-10-24T01:38:56.527Z,101243.34
2022-10-24T01:41:26.317Z,101245.91
2022-10-24T01:44:07.145Z,101246.78
2022-10-24T01:46:41.673Z,101243.25
2022-10-24T01:49:14.030Z,101245.91
2022-10-24T01:51:42.286Z,101245.97
2022-10-24T01:54:10.040Z,101245.13
2022-10-24T01:56:36.741Z,101246.88
2022-10-24T01:59:29.430Z,101244.25
2022-10-24T02:02:12.813Z,101241.59
2022-10-24T02:04:48.274Z,101245.13
2022-10-24T02:07:18.326Z,101245.13
2022-10-24T02:09:49.665Z,101252.06
2022-10-24T02:12:18.573Z,101243.28
2022-10-24T02:14:54.025Z,101243.22
2022-10-24T02:17:20.766Z,101240.56
2022-10-24T02:19:48.477Z,101246.75
2022-10-24T02:22:19.525Z,101251.13
2022-10-24T02:24:54.486Z,101242.34
2022-10-24T02:27:29.882Z,101241.44
2022-10-24T02:30:19.229Z,101236.16
2022-10-24T02:32:50.276Z,101238.78
2022-10-24T02:35:20.225Z,101234.38
2022-10-24T02:37:51.723Z,101231.66
2022-10-24T02:40:20.571Z,101234.28
2022-10-24T02:42:51.266Z,101227.28
2022-10-24T02:45:18.970Z,101222.81
2022-10-24T02:47:47.260Z,101220.22
2022-10-24T02:50:14.485Z,101220.22
2022-10-24T02:52:43.474Z,101210.53
2022-10-24T02:55:11.854Z,101213.16
2022-10-24T02:57:39.346Z,101214.06
2022-10-24T03:00:06.790Z,101207.91
2022-10-24T03:02:33.586Z,101198.25
2022-10-24T03:05:00.420Z,101194.69
2022-10-24T03:07:27.059Z,101201.78
2022-10-24T03:09:53.678Z,101204.44
2022-10-24T03:12:20.251Z,101207.97
2022-10-24T03:14:46.839Z,101208.00
2022-10-24T03:17:13.392Z,101215.91
2022-10-24T03:19:39.985Z,101209.72
2022-10-24T03:22:06.586Z,101205.34
2022-10-24T03:24:44.086Z,101208.81
2022-10-24T03:27:19.824Z,101207.03
2022-10-24T03:29:46.376Z,101207.03
2022-10-24T03:32:13.042Z,101197.34
2022-10-24T03:34:39.814Z,101208.75
2022-10-24T03:37:06.416Z,101202.56
2022-10-24T03:39:33.004Z,101199.06
2022-10-24T03:41:59.618Z,101201.69
2022-10-24T03:44:26.247Z,101201.75
2022-10-24T03:46:52.916Z,101194.69
2022-10-24T03:49:19.585Z,101199.97
2022-10-24T03:51:46.353Z,101188.56
2022-10-24T03:54:15.328Z,101188.56
2022-10-24T03:56:48.012Z,101185.03
2022-10-24T03:59:14.788Z,101174.50
2022-10-24T04:01:41.684Z,101180.69
2022-10-24T04:04:08.557Z,101176.31
2022-10-24T04:06:36.553Z,101175.50
2022-10-24T04:09:04.388Z,101177.22
2022-10-24T04:11:31.064Z,101179.00
2022-10-24T04:13:58.134Z,101179.03
2022-10-24T04:16:24.948Z,101173.75
2022-10-24T04:18:51.715Z,101172.00
2022-10-24T04:21:21.535Z,101171.94
2022-10-24T04:23:49.054Z,101164.97
2022-10-24T04:26:17.484Z,101176.41
2022-10-24T04:28:46.799Z,101175.53
2022-10-24T04:31:16.892Z,101179.03
2022-10-24T04:33:46.521Z,101173.78
2022-10-24T04:36:13.102Z,101168.47
2022-10-24T04:38:40.914Z,101171.94
2022-10-24T04:41:11.193Z,101172.81
2022-10-24T04:43:39.596Z,101182.50
2022-10-24T04:46:06.610Z,101177.22
2022-10-24T04:48:33.335Z,101173.72
2022-10-24T04:51:00.162Z,101176.34
2022-10-24T04:53:26.776Z,101179.88
2022-10-24T04:55:53.398Z,101175.44
2022-10-24T04:58:20.906Z,101178.94
2022-10-24T05:00:49.811Z,101173.63
2022-10-24T05:03:20.103Z,101176.22
2022-10-24T05:05:47.601Z,101181.44
2022-10-24T05:08:14.364Z,101180.56
2022-10-24T05:10:41.098Z,101178.81
2022-10-24T05:13:08.141Z,101173.53
2022-10-24T05:15:34.923Z,101173.53
2022-10-24T05:18:01.511Z,101170.91
2022-10-24T05:20:28.496Z,101172.66
2022-10-24T05:22:55.110Z,101164.75
2022-10-24T05:25:21.882Z,101167.44
2022-10-24T05:27:48.637Z,101166.56
2022-10-24T05:30:15.493Z,101170.06
2022-10-24T05:32:42.902Z,101159.50
2022-10-24T05:35:10.494Z,101163.84
2022-10-24T05:37:39.078Z,101161.19
2022-10-24T05:40:08.466Z,101155.91
2022-10-24T05:42:36.325Z,101151.53
2022-10-24T05:45:03.941Z,101157.69
2022-10-24T05:47:30.550Z,101155.06
2022-10-24T05:49:57.113Z,101149.72
2022-10-24T05:52:23.713Z,101143.53
2022-10-24T05:54:55.816Z,101132.97
2022-10-24T05:57:33.293Z,101142.66
2022-10-24T06:00:00.673Z,101147.03
2022-10-24T06:02:27.554Z,101144.34
2022-10-24T06:04:56.268Z,101139.94
2022-10-24T06:07:23.199Z,101149.59
2022-10-24T06:09:49.790Z,101150.44
2022-10-24T06:12:16.721Z,101145.97
2022-10-24T06:14:44.676Z,101150.34
2022-10-24T06:17:12.139Z,101145.91
2022-10-24T06:19:39.638Z,101137.06
2022-10-24T06:22:07.618Z,101141.41
2022-10-24T06:24:35.887Z,101141.41
2022-10-24T06:27:03.555Z,101135.25
2022-10-24T06:29:30.299Z,101143.94
2022-10-24T06:31:56.998Z,101139.56
2022-10-24T06:34:23.627Z,101141.25
2022-10-24T06:36:50.224Z,101155.31
2022-10-24T06:39:16.891Z,101145.59
2022-10-24T06:41:43.468Z,101149.09
2022-10-24T06:44:11.125Z,101149.06
2022-10-24T06:46:38.253Z,101149.91
2022-10-24T06:49:04.919Z,101153.41
2022-10-24T06:51:31.622Z,101147.22
2022-10-24T06:53:58.971Z,101142.81
2022-10-24T06:56:25.801Z,101144.53
2022-10-24T06:58:52.484Z,101143.59
2022-10-24T07:01:23.532Z,101146.19
2022-10-24T07:03:50.952Z,101143.53
2022-10-24T07:06:20.312Z,101147.91
2022-10-24T07:08:47.672Z,101149.59
2022-10-24T07:11:14.820Z,101158.38
2022-10-24T07:13:41.525Z,101145.09
2022-10-24T07:16:08.402Z,101147.69
2022-10-24T07:18:35.379Z,101146.78
2022-10-24T07:21:03.994Z,101138.84
2022-10-24T07:23:31.375Z,101143.09
2022-10-24T07:26:05.894Z,101148.34
2022-10-24T07:28:33.538Z,101149.19
2022-10-24T07:31:00.791Z,101149.13
2022-10-24T07:33:27.781Z,101157.00
2022-10-24T07:35:54.801Z,101153.38
2022-10-24T07:38:21.626Z,101148.97
2022-10-24T07:40:48.262Z,101151.56
2022-10-24T07:43:15.441Z,101149.81
2022-10-24T07:45:44.702Z,101151.53
2022-10-24T07:48:13.329Z,101148.84
2022-10-24T07:50:45.273Z,101147.97
2022-10-24T07:53:12.920Z,101149.66
2022-10-24T07:55:43.946Z,101144.34
2022-10-24T07:58:11.308Z,101148.75
2022-10-24T08:00:44.027Z,101156.63
2022-10-24T08:03:11.704Z,101146.91
2022-10-24T08:05:40.239Z,101146.00
2022-10-24T08:10:53.772Z,101145.91
2022-10-24T08:13:20.379Z,101142.34
2022-10-24T08:15:47.110Z,101149.38
2022-10-24T08:18:13.760Z,101148.44
2022-10-24T08:20:40.462Z,101152.81
2022-10-24T08:23:07.093Z,101152.69
2022-10-24T08:25:33.625Z,101146.53
2022-10-24T08:28:01.807Z,101143.78
2022-10-24T08:30:30.553Z,101148.13
2022-10-24T08:32:57.084Z,101150.69
2022-10-24T08:35:23.674Z,101158.53
2022-10-24T08:37:50.307Z,101148.00
2022-10-24T08:40:19.650Z,101150.59
2022-10-24T08:42:48.168Z,101150.50
2022-10-24T08:45:27.190Z,101146.03
2022-10-24T08:48:02.832Z,101146.88
2022-10-24T08:50:35.598Z,101141.59
2022-10-24T08:53:15.241Z,101143.31
2022-10-24T08:55:50.363Z,101145.88
2022-10-24T08:58:25.959Z,101144.09
2022-10-24T09:00:56.518Z,101142.31
2022-10-24T09:03:56.507Z,101144.91
2022-10-24T09:06:31.294Z,101144.91
2022-10-24T09:09:12.423Z,101142.25
2022-10-24T09:11:55.694Z,101137.78
2022-10-24T09:14:32.589Z,101144.84
2022-10-24T09:17:22.396Z,101143.06
2022-10-24T09:19:56.365Z,101138.63
2022-10-24T09:22:25.505Z,101139.47
2022-10-24T09:24:58.334Z,101145.56
2022-10-24T09:27:29.578Z,101137.56
2022-10-24T09:29:58.619Z,101134.88
2022-10-24T09:32:27.848Z,101136.56
2022-10-24T09:34:55.221Z,101142.72
2022-10-24T09:37:44.222Z,101138.25
2022-10-24T09:40:20.780Z,101134.63
2022-10-24T09:42:49.444Z,101127.50
2022-10-24T09:45:27.928Z,101124.75
2022-10-24T09:48:00.122Z,101131.72
2022-10-24T09:50:27.542Z,101125.47
2022-10-24T09:52:57.977Z,101127.97
2022-10-24T09:55:28.807Z,101120.78
2022-10-24T09:57:59.467Z,101116.25
2022-10-24T10:00:30.111Z,101112.66
2022-10-24T10:03:06.060Z,101107.25
2022-10-24T10:06:01.258Z,101106.28
2022-10-24T10:08:31.671Z,101106.22
2022-10-24T10:11:08.905Z,101106.19
2022-10-24T10:13:45.366Z,101103.47
2022-10-24T10:16:25.778Z,101104.25
2022-10-24T10:19:05.290Z,101104.13
2022-10-24T10:22:02.055Z,101105.03
2022-10-24T10:24:41.046Z,101100.63
2022-10-24T10:27:31.444Z,101096.19
2022-10-24T10:30:16.490Z,101092.66
2022-10-24T10:32:49.051Z,101097.94
2022-10-24T10:35:26.851Z,101097.09
2022-10-24T10:38:14.462Z,101094.44
2022-10-24T10:40:46.160Z,101086.47
2022-10-24T10:43:27.686Z,101087.38
2022-10-24T10:46:13.190Z,101086.47
2022-10-24T10:48:58.481Z,101092.59
2022-10-24T10:51:47.759Z,101090.00
2022-10-24T10:54:38.702Z,101090.84
2022-10-24T10:57:31.376Z,101094.44
2022-10-24T11:00:01.222Z,101084.69
2022-10-24T11:03:05.458Z,101085.59
2022-10-24T11:05:44.763Z,101082.03
2022-10-24T11:08:27.087Z,101082.00
2022-10-24T11:10:59.736Z,101079.34
2022-10-24T11:13:36.009Z,101077.56
2022-10-24T11:16:07.416Z,101077.63
2022-10-24T11:18:40.550Z,101072.31
2022-10-24T11:21:09.840Z,101074.97
2022-10-24T11:23:45.359Z,101077.63
2022-10-24T11:26:47.355Z,101076.78
2022-10-24T11:29:24.773Z,101068.81
2022-10-24T11:31:59.452Z,101073.25
2022-10-24T11:34:43.097Z,101067.97
2022-10-24T11:37:31.991Z,101068.03
2022-10-24T11:40:04.900Z,101062.72
2022-10-24T11:42:42.695Z,101064.50
2022-10-24T11:45:15.640Z,101060.97
2022-10-24T11:48:06.794Z,101054.78
2022-10-24T11:50:48.260Z,101061.84
2022-10-24T11:53:31.273Z,101050.38
2022-10-24T11:56:12.086Z,101039.78
2022-10-24T11:58:51.064Z,101039.78
2022-10-24T12:01:20.386Z,101036.22
2022-10-24T12:03:55.961Z,101034.47
2022-10-24T12:07:04.463Z,101021.28
2022-10-24T12:09:59.983Z,101020.41
2022-10-24T12:13:05.596Z,101013.28
2022-10-24T12:15:42.603Z,101012.38
2022-10-24T12:18:24.497Z,101007.88
2022-10-24T12:20:53.318Z,100999.06
2022-10-24T12:23:23.518Z,101000.72
2022-10-24T12:26:13.145Z,100990.97
2022-10-24T12:28:40.642Z,100995.31
2022-10-24T12:31:16.129Z,100987.28
2022-10-24T12:33:44.148Z,100986.34
2022-10-24T12:36:11.684Z,100971.28
2022-10-24T12:38:38.220Z,100977.34
2022-10-24T12:41:09.467Z,100976.44
2022-10-24T12:43:42.843Z,100976.38
2022-10-24T12:46:18.818Z,100974.59
2022-10-24T12:48:58.167Z,100962.25
2022-10-24T12:51:34.750Z,100975.56
2022-10-24T12:54:04.320Z,100966.75
2022-10-24T12:56:32.828Z,100975.56
2022-10-24T12:59:31.730Z,100972.91
2022-10-24T13:02:13.628Z,100973.81
2022-10-24T13:05:17.678Z,100967.66
2022-10-24T13:07:56.224Z,100970.34
2022-10-24T13:10:47.363Z,100954.47
2022-10-24T13:13:43.346Z,100958.06
2022-10-24T13:16:37.686Z,100952.81
2022-10-24T13:19:17.223Z,100956.38
2022-10-24T13:21:48.590Z,100953.78
2022-10-24T13:24:15.133Z,100946.69
2022-10-24T13:26:55.749Z,100937.81
2022-10-24T13:29:28.072Z,100943.13
2022-10-24T13:32:16.301Z,100935.16
2022-10-24T13:34:54.445Z,100936.94
2022-10-24T13:37:28.297Z,100930.72
2022-10-24T13:40:15.377Z,100938.66
2022-10-24T13:42:56.612Z,100928.09
2022-10-24T13:45:37.011Z,100929.84
2022-10-24T13:48:17.009Z,100923.69
2022-10-24T13:51:09.270Z,100929.00
2022-10-24T13:53:46.205Z,100931.63
2022-10-24T13:56:13.661Z,100929.00
2022-10-24T13:58:44.615Z,100919.28
2022-10-24T14:01:20.149Z,100919.28
2022-10-24T14:03:48.114Z,100921.03
2022-10-24T14:06:15.130Z,100919.28
2022-10-24T14:08:57.485Z,100907.88
2022-10-24T14:11:27.810Z,100902.59
2022-10-24T14:14:04.074Z,100899.97
2022-10-24T14:16:35.438Z,100894.72
2022-10-24T14:19:29.616Z,100907.13
2022-10-24T14:21:58.334Z,100905.44
2022-10-24T14:24:25.187Z,100902.84
2022-10-24T14:26:54.104Z,100898.56
2022-10-24T14:29:33.985Z,100902.16
2022-10-24T14:32:03.561Z,100897.81
2022-10-24T14:34:36.123Z,100900.53
2022-10-24T14:37:11.890Z,100893.53
2022-10-24T14:39:39.414Z,100887.44
2022-10-24T14:42:13.194Z,100884.88
2022-10-24T14:44:42.024Z,100886.69
2022-10-24T14:47:31.414Z,100883.19
2022-10-24T14:49:58.501Z,100876.19
2022-10-24T14:52:37.244Z,100873.59
2022-10-24T14:55:24.708Z,100871.91
2022-10-24T14:57:52.798Z,100863.19
2022-10-24T15:00:22.448Z,100867.63
2022-10-24T15:02:51.544Z,100866.78
2022-10-24T15:05:22.361Z,100860.56
2022-10-24T15:08:16.761Z,100858.75
2022-10-24T15:10:43.876Z,100859.69
2022-10-24T15:13:24.419Z,100855.25
2022-10-24T15:15:55.253Z,100855.28
2022-10-24T15:18:23.093Z,100858.84
2022-10-24T15:20:52.713Z,100853.66
2022-10-24T15:23:21.611Z,100856.28
2022-10-24T15:26:00.044Z,100853.66
2022-10-24T15:29:13.716Z,100846.53
2022-10-24T15:31:46.594Z,100851.94
2022-10-24T15:34:27.309Z,100845.78
2022-10-24T15:36:53.900Z,100854.66
2022-10-24T15:39:24.367Z,100848.44
2022-10-24T15:41:51.378Z,100853.72
2022-10-24T15:44:30.189Z,100844.06
2022-10-24T15:46:57.454Z,100851.09
2022-10-24T15:49:24.019Z,100840.50
2022-10-24T15:51:51.268Z,100842.28
2022-10-24T15:54:20.433Z,100835.25
2022-10-24T15:56:47.293Z,100841.41
2022-10-24T15:59:13.933Z,100840.50
2022-10-24T16:01:48.738Z,100831.69
2022-10-24T16:04:15.783Z,100819.31
2022-10-24T16:06:42.774Z,100822.88
2022-10-24T16:09:21.804Z,100821.09
2022-10-24T16:11:48.998Z,100828.03
2022-10-24T16:14:19.401Z,100826.28
2022-10-24T16:16:46.230Z,100817.41
2022-10-24T16:19:13.408Z,100816.50
2022-10-24T16:21:41.274Z,100815.56
2022-10-24T16:24:09.051Z,100815.53
2022-10-24T16:26:36.603Z,100813.81
2022-10-24T16:29:04.759Z,100812.91
2022-10-24T16:31:32.258Z,100803.16
2022-10-24T16:33:59.808Z,100804.88
2022-10-24T16:36:26.631Z,100798.69
2022-10-24T16:38:53.380Z,100806.66
2022-10-24T16:41:24.089Z,100800.41
2022-10-24T16:43:53.432Z,100801.34
2022-10-24T16:46:21.937Z,100793.41
2022-10-24T16:48:49.626Z,100795.13
2022-10-24T16:51:19.804Z,100794.25
2022-10-24T16:53:46.488Z,100792.47
2022-10-24T16:56:14.523Z,100796.94
2022-10-24T16:58:41.253Z,100803.13
2022-10-24T17:01:14.182Z,100793.41
2022-10-24T17:03:41.096Z,100793.44
2022-10-24T17:06:08.257Z,100784.63
2022-10-24T17:08:35.178Z,100781.97
2022-10-24T17:11:01.917Z,100788.19
2022-10-24T17:13:29.080Z,100784.69
2022-10-24T17:15:56.693Z,100781.97
2022-10-24T17:18:25.510Z,100777.63
2022-10-24T17:20:58.985Z,100778.50
2022-10-24T17:23:27.228Z,100768.84
2022-10-24T17:25:54.899Z,100779.44
2022-10-24T17:28:21.710Z,100775.84
2022-10-24T17:30:48.478Z,100777.63
2022-10-24T17:33:15.230Z,100772.34
2022-10-24T17:35:52.942Z,100773.19
2022-10-24T17:38:40.829Z,100773.19
2022-10-24T17:41:22.412Z,100762.59
2022-10-24T17:43:49.257Z,100767.88
2022-10-24T17:46:16.337Z,100763.44
2022-10-24T17:48:43.003Z,100763.44
2022-10-24T17:51:17.466Z,100753.72
2022-10-24T17:53:44.089Z,100767.03
2022-10-24T17:58:43.782Z,100755.50
2022-10-24T18:01:11.913Z,100752.91
2022-10-24T18:03:38.916Z,100757.28
2022-10-24T18:06:07.122Z,100757.28
2022-10-24T18:08:34.090Z,100759.06
2022-10-24T18:11:05.997Z,100758.22
2022-10-24T18:13:32.839Z,100744.97
2022-10-24T18:15:59.433Z,100744.97
2022-10-24T18:18:27.819Z,100741.44
2022-10-24T18:21:05.976Z,100739.69
2022-10-24T18:23:53.528Z,100734.38
2022-10-24T18:26:25.849Z,100725.56
2022-10-24T18:28:54.815Z,100719.50
2022-10-24T18:31:25.416Z,100714.16
2022-10-24T18:33:55.235Z,100718.53
2022-10-24T18:36:29.334Z,100714.16
2022-10-24T18:38:57.602Z,100707.03
2022-10-24T18:41:27.216Z,100697.31
2022-10-24T18:43:54.259Z,100702.56
2022-10-24T18:46:21.342Z,100699.03
2022-10-24T18:48:48.284Z,100698.13
2022-10-24T18:51:30.521Z,100694.59
2022-10-24T18:54:03.437Z,100699.88
2022-10-24T18:56:30.080Z,100690.16
2022-10-24T18:58:57.813Z,100685.66
2022-10-24T19:01:34.283Z,100692.69
2022-10-24T19:04:09.179Z,100682.97
2022-10-24T19:06:36.314Z,100685.63
2022-10-24T19:09:03.149Z,100676.81
2022-10-24T19:11:29.846Z,100670.59
2022-10-24T19:13:56.567Z,100666.22
2022-10-24T19:16:31.686Z,100664.44
2022-10-24T19:19:02.733Z,100652.06
2022-10-24T19:21:29.341Z,100658.13
2022-10-24T19:23:55.921Z,100658.09
2022-10-24T19:26:22.613Z,100652.00
2022-10-24T19:28:49.202Z,100644.03
2022-10-24T19:31:16.497Z,100644.91
2022-10-24T19:33:43.166Z,100646.69
2022-10-24T19:36:13.341Z,100644.88
2022-10-24T19:38:43.498Z,100651.88
2022-10-24T19:41:11.361Z,100643.94
2022-10-24T19:43:38.525Z,100642.22
2022-10-24T19:46:18.940Z,100637.78
2022-10-24T19:48:49.305Z,100629.84
2022-10-24T19:51:17.971Z,100631.53
2022-10-24T19:53:45.032Z,100633.25
2022-10-24T19:56:15.340Z,100635.03
2022-10-24T19:58:42.867Z,100630.56
2022-10-24T20:01:18.377Z,100624.38
2022-10-24T20:03:47.012Z,100617.31
2022-10-24T20:06:14.472Z,100613.69
2022-10-24T20:08:41.482Z,100614.53
2022-10-24T20:11:08.423Z,100611.00
2022-10-24T20:13:35.545Z,100599.47
2022-10-24T20:16:07.502Z,100603.84
2022-10-24T20:18:35.948Z,100595.00
2022-10-24T20:21:13.972Z,100589.69
2022-10-24T20:23:41.767Z,100567.59
2022-10-24T20:26:12.055Z,100579.97
2022-10-24T20:28:43.096Z,100587.00
2022-10-24T20:31:26.034Z,100580.75
2022-10-24T20:33:52.985Z,100575.44
2022-10-24T20:36:21.249Z,100578.06
2022-10-24T20:38:47.942Z,100575.44
2022-10-24T20:41:17.389Z,100582.44
2022-10-24T20:43:44.061Z,100571.84
2022-10-24T20:46:10.653Z,100566.56
2022-10-24T20:48:37.253Z,100558.59
2022-10-24T20:51:20.111Z,100555.91
2022-10-24T20:53:47.238Z,100551.47
2022-10-24T20:56:22.376Z,100551.47
2022-10-24T20:58:53.402Z,100548.84
2022-10-24T21:01:22.569Z,100547.91
2022-10-24T21:03:50.520Z,100550.56
2022-10-24T21:06:20.288Z,100538.25
2022-10-24T21:08:51.541Z,100543.53
2022-10-24T21:11:25.802Z,100542.59
2022-10-24T21:13:54.513Z,100539.88
2022-10-24T21:16:24.708Z,100536.34
2022-10-24T21:18:53.037Z,100531.91
2022-10-24T21:21:21.281Z,100537.13
2022-10-24T21:23:52.601Z,100538.03
2022-10-24T21:26:20.107Z,100529.19
2022-10-24T21:28:46.731Z,100529.19
2022-10-24T21:31:15.853Z,100522.97
2022-10-24T21:33:43.100Z,100522.06
2022-10-24T21:36:13.217Z,100512.38
2022-10-24T21:38:40.606Z,100502.66
2022-10-24T21:41:09.513Z,100507.94
2022-10-24T21:43:38.524Z,100498.22
2022-10-24T21:46:09.131Z,100504.38
2022-10-24T21:48:40.449Z,100489.41
2022-10-24T21:51:08.768Z,100493.75
2022-10-24T21:54:03.151Z,100497.25
2022-10-24T21:56:33.443Z,100482.22
2022-10-24T22:01:40.755Z,100486.53
2022-10-24T22:04:08.212Z,100485.59
2022-10-24T22:06:36.311Z,100482.84
2022-10-24T22:09:05.225Z,100479.25
2022-10-24T22:11:32.922Z,100475.69
2022-10-24T22:13:59.893Z,100476.56
2022-10-24T22:16:29.252Z,100472.13
2022-10-24T22:18:57.167Z,100470.25
2022-10-24T22:21:32.244Z,100462.28
2022-10-24T22:24:00.648Z,100467.50
2022-10-24T22:26:28.205Z,100466.59
2022-10-24T22:28:58.007Z,100465.59
2022-10-24T22:31:29.150Z,100467.38
2022-10-24T22:33:56.876Z,100452.31
2022-10-24T22:36:38.824Z,100457.47
2022-10-24T22:39:15.690Z,100452.19
2022-10-24T22:41:43.014Z,100449.41
2022-10-24T22:44:13.964Z,100442.31
2022-10-24T22:46:59.632Z,100443.09
2022-10-24T22:49:50.156Z,100441.28
2022-10-24T22:52:17.124Z,100438.53
2022-10-24T22:54:46.424Z,100442.88
2022-10-24T22:57:13.386Z,100428.63
2022-10-24T22:59:40.202Z,100425.06
2022-10-24T23:02:22.170Z,100419.72
2022-10-24T23:05:00.978Z,100418.69
2022-10-24T23:07:38.237Z,100411.59
2022-10-24T23:10:09.840Z,100408.91
2022-10-24T23:12:39.477Z,100404.38
2022-10-24T23:15:09.956Z,100403.41
2022-10-24T23:17:36.754Z,100397.22
2022-10-24T23:20:03.925Z,100388.34
2022-10-24T23:22:32.612Z,100385.63
2022-10-24T23:25:00.862Z,100395.25
2022-10-24T23:27:32.364Z,100384.50
2022-10-24T23:29:59.744Z,100382.72
2022-10-24T23:32:31.726Z,100365.88
2022-10-24T23:34:59.702Z,100363.16
2022-10-24T23:37:39.657Z,100367.50
2022-10-24T23:40:18.128Z,100363.81
2022-10-24T23:42:46.268Z,100354.16
2022-10-24T23:45:15.486Z,100356.72
2022-10-24T23:48:23.374Z,100355.81
2022-10-24T23:51:31.139Z,100356.59
2022-10-24T23:53:58.357Z,100350.38
2022-10-24T23:56:27.565Z,100353.81
2022-10-24T23:58:55.259Z,100346.72
